Time;durP1;ratioP1;P1;durP2;ratioP2;P2;SDS_P1;SDS_P2;PMS_P1;PMS_P2;Temp;Humidity;BMP_temperature;BMP_pressure;BME280_temperature;BME280_humidity;BME280_pressure;Samples;Min_cycle;Max_cycle;Signal;HPM_P1;HPM_P2
2022/09/23 00:01:43;;;;;;;;;21.33;18.67;;;;;;;;5079271;27;46131;-69
2022/09/23 00:04:08;;;;;;;;;17.33;15.00;;;;;;;;5085965;27;45611;-70
2022/09/23 00:06:33;;;;;;;;;15.67;15.67;;;;;;;;5096527;27;45400;-69
2022/09/23 00:08:58;;;;;;;;;20.33;16.33;;;;;;;;5085669;27;45671;-69
2022/09/23 00:11:25;;;;;;;;;23.33;20.33;;;;;;;;5074615;27;46115;-69
2022/09/23 00:13:52;;;;;;;;;23.33;20.00;;;;;;;;5075778;27;45745;-69
2022/09/23 00:16:19;;;;;;;;;21.00;17.00;;;;;;;;5068398;27;45795;-67
2022/09/23 00:18:44;;;;;;;;;20.00;18.67;;;;;;;;5084626;27;45829;-70
2022/09/23 00:21:11;;;;;;;;;21.33;16.00;;;;;;;;5080055;27;47110;-68
2022/09/23 00:23:37;;;;;;;;;19.33;18.00;;;;;;;;5097754;27;45713;-68
2022/09/23 00:26:04;;;;;;;;;19.00;17.33;;;;;;;;5094352;27;45442;-69
2022/09/23 00:28:30;;;;;;;;;19.00;16.67;;;;;;;;5100913;27;45774;-69
2022/09/23 00:30:55;;;;;;;;;19.33;18.33;;;;;;;;5090060;27;45699;-68
2022/09/23 00:33:20;;;;;;;;;21.33;16.00;;;;;;;;5085605;27;46211;-67
2022/09/23 00:35:46;;;;;;;;;21.33;16.67;;;;;;;;5080503;27;45662;-75
2022/09/23 00:38:13;;;;;;;;;18.00;16.00;;;;;;;;5112145;27;45416;-73
2022/09/23 00:40:44;;;;;;;;;17.00;15.33;;;;;;;;5079583;27;47265;-73
2022/09/23 00:43:16;;;;;;;;;16.00;16.00;;;;;;;;5100899;27;45857;-69
2022/09/23 00:45:44;;;;;;;;;17.67;15.00;;;;;;;;5076205;27;45426;-74
2022/09/23 00:48:13;;;;;;;;;17.33;17.33;;;;;;;;5086138;27;45340;-75
2022/09/23 00:50:41;;;;;;;;;22.00;19.00;;;;;;;;5074550;27;47394;-73
2022/09/23 00:53:10;;;;;;;;;16.00;15.33;;;;;;;;5092175;27;45692;-76
2022/09/23 00:55:41;;;;;;;;;24.00;19.00;;;;;;;;5086444;27;45820;-74
2022/09/23 00:58:09;;;;;;;;;21.00;15.00;;;;;;;;5084472;27;45523;-74
2022/09/23 01:00:35;;;;;;;;;21.67;17.33;;;;;;;;5084705;27;45756;-74
2022/09/23 01:03:01;;;;;;;;;17.33;17.33;;;;;;;;5063746;27;45700;-72
2022/09/23 01:05:26;;;;;;;;;27.00;20.67;;;;;;;;5064868;28;45413;-75
2022/09/23 01:07:52;;;;;;;;;25.00;20.00;;;;;;;;5064239;27;45449;-69
2022/09/23 01:10:18;;;;;;;;;25.33;19.67;;;;;;;;5054932;28;47356;-69
2022/09/23 01:12:54;;;;;;;;;19.67;17.67;;;;;;;;5084270;27;45533;-68
2022/09/23 01:15:23;;;;;;;;;17.33;15.33;;;;;;;;5076036;27;45553;-68
2022/09/23 01:18:01;;;;;;;;;16.00;14.00;;;;;;;;5091708;27;45387;-69
2022/09/23 01:20:44;;;;;;;;;18.33;17.00;;;;;;;;5070632;27;46213;-67
2022/09/23 01:23:22;;;;;;;;;17.67;16.33;;;;;;;;5074750;27;45443;-66
2022/09/23 01:25:50;;;;;;;;;22.00;19.00;;;;;;;;5087178;27;45882;-67
2022/09/23 01:28:39;;;;;;;;;18.67;16.00;;;;;;;;5095407;27;45480;-74
2022/09/23 01:31:04;;;;;;;;;25.33;20.33;;;;;;;;5092764;27;45767;-77
2022/09/23 01:33:38;;;;;;;;;26.00;22.33;;;;;;;;5081875;27;45400;-73
2022/09/23 01:36:07;;;;;;;;;24.33;23.33;;;;;;;;5072251;28;45341;-73
2022/09/23 01:38:40;;;;;;;;;25.33;19.00;;;;;;;;5073242;27;45317;-75
2022/09/23 01:41:23;;;;;;;;;26.33;20.67;;;;;;;;5071760;28;45531;-74
2022/09/23 01:43:56;;;;;;;;;20.33;16.67;;;;;;;;5059078;28;45467;-68
2022/09/23 01:46:29;;;;;;;;;17.00;16.33;;;;;;;;5067634;27;45492;-74
2022/09/23 01:48:54;;;;;;;;;23.33;20.00;;;;;;;;5045809;28;46092;-74
2022/09/23 01:51:30;;;;;;;;;24.33;17.67;;;;;;;;5063078;28;45483;-75
2022/09/23 01:53:55;;;;;;;;;20.67;18.67;;;;;;;;5073418;28;45738;-74
2022/09/23 01:56:34;;;;;;;;;3.33;2.33;;;;;;;;5084169;27;45821;-77
2022/09/23 01:59:15;;;;;;;;;22.00;20.00;;;;;;;;5081741;27;45507;-76
2022/09/23 02:02:03;;;;;;;;;22.67;18.33;;;;;;;;5070106;27;46402;-74
2022/09/23 02:04:38;;;;;;;;;17.00;15.00;;;;;;;;5079751;27;45657;-75
2022/09/23 02:07:23;;;;;;;;;17.67;14.33;;;;;;;;5079952;27;45897;-74
2022/09/23 02:09:56;;;;;;;;;18.33;17.00;;;;;;;;5034846;27;45939;-74
2022/09/23 02:12:24;;;;;;;;;16.33;16.33;;;;;;;;5088478;27;45764;-74
2022/09/23 02:14:54;;;;;;;;;20.33;18.67;;;;;;;;5098101;27;45504;-73
2022/09/23 02:17:26;;;;;;;;;18.00;17.00;;;;;;;;5089611;27;45404;-74
2022/09/23 02:19:57;;;;;;;;;18.33;12.67;;;;;;;;5103728;27;45529;-74
2022/09/23 02:22:26;;;;;;;;;25.33;19.00;;;;;;;;5085976;27;46586;-74
2022/09/23 02:24:54;;;;;;;;;17.67;17.67;;;;;;;;5104529;27;45766;-74
2022/09/23 02:27:19;;;;;;;;;20.00;17.33;;;;;;;;5075426;27;45458;-73
2022/09/23 02:29:46;;;;;;;;;20.33;20.33;;;;;;;;5105549;27;45645;-74
2022/09/23 02:32:11;;;;;;;;;14.00;13.33;;;;;;;;5081607;27;47050;-74
2022/09/23 02:34:42;;;;;;;;;20.67;17.00;;;;;;;;5075353;27;45400;-75
2022/09/23 02:37:24;;;;;;;;;19.33;16.00;;;;;;;;5112411;27;45750;-73
2022/09/23 02:40:08;;;;;;;;;22.00;20.00;;;;;;;;5112409;27;45538;-74
2022/09/23 02:42:59;;;;;;;;;19.67;17.67;;;;;;;;5093941;27;46784;-73
2022/09/23 02:45:24;;;;;;;;;15.33;14.67;;;;;;;;5096813;27;45782;-73
2022/09/23 02:47:52;;;;;;;;;20.67;17.33;;;;;;;;5097638;27;45652;-73
2022/09/23 02:50:18;;;;;;;;;17.33;17.33;;;;;;;;5083575;27;45667;-73
2022/09/23 02:52:45;;;;;;;;;23.33;20.67;;;;;;;;5085609;27;46111;-74
2022/09/23 02:55:10;;;;;;;;;21.33;17.67;;;;;;;;5098215;27;45391;-74
2022/09/23 02:57:36;;;;;;;;;20.67;17.67;;;;;;;;5090736;27;45655;-74
2022/09/23 03:00:01;;;;;;;;;22.33;17.67;;;;;;;;5088020;27;45811;-73
2022/09/23 03:02:37;;;;;;;;;18.00;17.33;;;;;;;;5092317;27;46377;-73
2022/09/23 03:05:05;;;;;;;;;14.33;14.33;;;;;;;;5100610;27;45714;-74
2022/09/23 03:07:37;;;;;;;;;27.00;20.67;;;;;;;;5094808;27;45400;-67
2022/09/23 03:10:07;;;;;;;;;17.33;15.67;;;;;;;;5089633;27;45513;-66
2022/09/23 03:12:51;;;;;;;;;19.67;16.67;;;;;;;;5087584;27;45362;-73
2022/09/23 03:15:16;;;;;;;;;17.33;17.33;;;;;;;;5088360;27;45814;-75
2022/09/23 03:17:42;;;;;;;;;20.00;18.33;;;;;;;;5086860;27;45740;-74
2022/09/23 03:20:14;;;;;;;;;20.33;17.67;;;;;;;;5094555;27;45995;-76
2022/09/23 03:22:43;;;;;;;;;21.67;19.33;;;;;;;;5110829;27;46388;-74
2022/09/23 03:25:11;;;;;;;;;23.00;18.00;;;;;;;;5096784;27;45744;-66
2022/09/23 03:27:38;;;;;;;;;29.00;25.33;;;;;;;;5095242;27;45388;-68
2022/09/23 03:30:04;;;;;;;;;22.33;19.00;;;;;;;;5104046;27;45597;-69
2022/09/23 03:32:30;;;;;;;;;21.00;21.00;;;;;;;;5106661;27;45757;-69
2022/09/23 03:34:57;;;;;;;;;18.67;18.67;;;;;;;;5094065;27;45328;-68
2022/09/23 03:37:27;;;;;;;;;21.67;20.33;;;;;;;;5105263;27;45501;-69
2022/09/23 03:39:52;;;;;;;;;17.33;16.67;;;;;;;;5089960;27;45455;-68
2022/09/23 03:42:20;;;;;;;;;17.33;13.67;;;;;;;;5074381;27;45556;-69
2022/09/23 03:44:46;;;;;;;;;19.67;19.67;;;;;;;;5076391;27;46445;-69
2022/09/23 03:47:13;;;;;;;;;17.00;15.33;;;;;;;;5083640;27;45357;-69
2022/09/23 03:49:39;;;;;;;;;22.00;20.33;;;;;;;;5087860;27;45359;-74
2022/09/23 03:52:05;;;;;;;;;22.00;15.00;;;;;;;;5082926;27;46080;-75
2022/09/23 03:54:31;;;;;;;;;20.67;16.67;;;;;;;;5077680;27;46445;-73
2022/09/23 03:56:57;;;;;;;;;21.33;18.00;;;;;;;;5086697;27;45643;-74
2022/09/23 03:59:23;;;;;;;;;20.33;18.33;;;;;;;;5087502;27;45510;-74
2022/09/23 04:01:49;;;;;;;;;17.67;16.33;;;;;;;;5072959;27;48191;-76
2022/09/23 04:04:14;;;;;;;;;24.33;16.33;;;;;;;;5086166;27;45720;-75
2022/09/23 04:06:39;;;;;;;;;23.33;18.67;;;;;;;;5080289;27;45433;-75
2022/09/23 04:09:05;;;;;;;;;19.67;18.67;;;;;;;;5085448;27;46121;-74
2022/09/23 04:11:30;;;;;;;;;19.67;17.67;;;;;;;;5094628;27;45083;-75
2022/09/23 04:13:55;;;;;;;;;25.00;19.00;;;;;;;;5090554;27;45349;-75
2022/09/23 04:16:21;;;;;;;;;20.33;18.33;;;;;;;;5077251;27;45373;-76
2022/09/23 04:18:47;;;;;;;;;22.67;20.00;;;;;;;;5098192;27;45652;-69
2022/09/23 04:21:12;;;;;;;;;22.00;19.33;;;;;;;;5108087;27;47001;-69
2022/09/23 04:23:38;;;;;;;;;19.33;18.00;;;;;;;;5104899;27;45591;-68
2022/09/23 04:26:04;;;;;;;;;22.00;16.67;;;;;;;;5100842;27;45662;-68
2022/09/23 04:28:30;;;;;;;;;20.00;18.33;;;;;;;;5090547;27;45731;-69
2022/09/23 04:30:56;;;;;;;;;21.33;19.67;;;;;;;;5090739;27;46211;-68
2022/09/23 04:33:23;;;;;;;;;24.33;19.00;;;;;;;;5090917;27;45318;-69
2022/09/23 04:35:48;;;;;;;;;27.67;21.33;;;;;;;;5099280;27;45794;-70
2022/09/23 04:38:14;;;;;;;;;23.00;17.33;;;;;;;;5077088;27;46128;-70
2022/09/23 04:40:39;;;;;;;;;17.67;17.00;;;;;;;;5109650;27;45451;-69
2022/09/23 04:43:04;;;;;;;;;17.67;17.67;;;;;;;;5089336;27;45449;-69
2022/09/23 04:45:29;;;;;;;;;17.00;16.00;;;;;;;;5102733;27;45364;-69
2022/09/23 04:47:57;;;;;;;;;24.67;18.67;;;;;;;;5091250;27;45882;-68
2022/09/23 04:50:22;;;;;;;;;20.33;16.67;;;;;;;;5087708;27;45697;-76
2022/09/23 04:52:47;;;;;;;;;39.33;29.33;;;;;;;;5058853;27;45659;-68
2022/09/23 04:55:13;;;;;;;;;25.00;19.00;;;;;;;;5083681;27;45321;-68
2022/09/23 04:57:38;;;;;;;;;24.33;19.67;;;;;;;;5076149;27;45608;-69
2022/09/23 05:00:03;;;;;;;;;24.00;19.33;;;;;;;;5082820;27;46384;-69
2022/09/23 05:02:30;;;;;;;;;20.00;18.00;;;;;;;;5065773;27;45714;-68
2022/09/23 05:04:57;;;;;;;;;21.33;21.33;;;;;;;;5081593;27;46436;-68
2022/09/23 05:07:22;;;;;;;;;24.33;20.33;;;;;;;;5079899;27;45929;-68
2022/09/23 05:09:47;;;;;;;;;21.00;16.33;;;;;;;;5060709;27;47070;-76
2022/09/23 05:12:12;;;;;;;;;17.67;15.67;;;;;;;;5084610;27;45822;-68
2022/09/23 05:14:38;;;;;;;;;20.67;16.67;;;;;;;;5085467;27;45958;-70
2022/09/23 05:17:03;;;;;;;;;21.00;17.33;;;;;;;;5083646;27;45822;-70
2022/09/23 05:19:28;;;;;;;;;19.67;16.00;;;;;;;;5083544;27;46005;-67
2022/09/23 05:21:54;;;;;;;;;21.00;17.00;;;;;;;;5086348;27;45376;-71
2022/09/23 05:24:20;;;;;;;;;17.00;15.67;;;;;;;;5096207;27;45495;-69
2022/09/23 05:26:45;;;;;;;;;20.00;18.00;;;;;;;;5070263;28;46075;-71
2022/09/23 05:29:11;;;;;;;;;19.33;17.33;;;;;;;;5102238;27;45484;-72
2022/09/23 05:31:36;;;;;;;;;17.67;16.33;;;;;;;;5097218;27;45664;-71
2022/09/23 05:34:03;;;;;;;;;18.67;17.33;;;;;;;;5089243;27;45711;-68
2022/09/23 05:36:29;;;;;;;;;18.33;16.67;;;;;;;;5086448;27;45638;-70
2022/09/23 05:38:57;;;;;;;;;15.67;14.67;;;;;;;;5091289;27;46425;-72
2022/09/23 05:41:23;;;;;;;;;15.00;14.67;;;;;;;;5088008;27;45435;-70
2022/09/23 05:43:50;;;;;;;;;18.33;15.67;;;;;;;;5097035;27;45753;-70
2022/09/23 05:46:16;;;;;;;;;21.33;16.67;;;;;;;;5091561;27;45602;-70
2022/09/23 05:48:44;;;;;;;;;16.33;15.33;;;;;;;;5086183;27;46989;-68
2022/09/23 05:51:12;;;;;;;;;23.00;18.67;;;;;;;;5089725;27;45369;-69
2022/09/23 05:53:38;;;;;;;;;24.33;19.67;;;;;;;;5079550;27;45815;-70
2022/09/23 05:56:03;;;;;;;;;22.00;17.00;;;;;;;;5093612;27;45440;-69
2022/09/23 05:58:29;;;;;;;;;22.67;20.33;;;;;;;;5110075;27;45358;-67
2022/09/23 06:00:55;;;;;;;;;20.67;19.00;;;;;;;;5082115;27;45641;-66
2022/09/23 06:03:21;;;;;;;;;26.33;24.33;;;;;;;;5086268;27;45693;-67
2022/09/23 06:05:47;;;;;;;;;22.67;17.33;;;;;;;;5087252;27;45504;-71
2022/09/23 06:08:12;;;;;;;;;18.33;15.33;;;;;;;;5091507;27;46981;-69
2022/09/23 06:10:39;;;;;;;;;21.67;17.33;;;;;;;;5076504;27;45641;-72
2022/09/23 06:13:04;;;;;;;;;17.33;14.67;;;;;;;;5076422;27;45672;-70
2022/09/23 06:15:30;;;;;;;;;21.00;18.33;;;;;;;;5090326;27;45616;-72
2022/09/23 06:17:55;;;;;;;;;21.00;20.00;;;;;;;;5095738;27;46119;-73
2022/09/23 06:20:20;;;;;;;;;16.67;16.67;;;;;;;;5080011;27;45503;-73
2022/09/23 06:22:45;;;;;;;;;26.00;21.33;;;;;;;;5086342;27;45997;-73
2022/09/23 06:25:11;;;;;;;;;29.00;22.00;;;;;;;;5079410;27;46173;-72
2022/09/23 06:27:37;;;;;;;;;24.33;20.33;;;;;;;;5078184;27;46011;-71
2022/09/23 06:30:02;;;;;;;;;23.33;17.67;;;;;;;;5080174;27;45730;-71
2022/09/23 06:32:28;;;;;;;;;18.00;16.33;;;;;;;;5072215;27;45777;-71
2022/09/23 06:34:53;;;;;;;;;24.67;21.67;;;;;;;;5085232;27;45499;-71
2022/09/23 06:37:18;;;;;;;;;21.00;18.33;;;;;;;;5082626;27;46369;-71
2022/09/23 06:39:44;;;;;;;;;24.33;20.00;;;;;;;;5083843;27;45483;-72
2022/09/23 06:42:09;;;;;;;;;22.00;20.33;;;;;;;;5079870;27;46023;-72
2022/09/23 06:44:34;;;;;;;;;22.00;20.00;;;;;;;;5078297;27;45682;-69
2022/09/23 06:46:59;;;;;;;;;22.67;21.33;;;;;;;;5086735;27;45778;-72
2022/09/23 06:49:25;;;;;;;;;20.33;17.00;;;;;;;;5083936;27;45431;-72
2022/09/23 06:51:50;;;;;;;;;27.00;19.67;;;;;;;;5077099;27;45670;-72
2022/09/23 06:54:15;;;;;;;;;23.67;20.33;;;;;;;;5085776;27;45887;-72
2022/09/23 06:56:42;;;;;;;;;21.33;18.67;;;;;;;;5082068;27;46234;-71
2022/09/23 06:59:11;;;;;;;;;25.33;20.67;;;;;;;;5098491;27;45762;-72
2022/09/23 07:01:37;;;;;;;;;27.00;19.33;;;;;;;;5091252;27;45563;-72
2022/09/23 07:04:02;;;;;;;;;29.67;20.00;;;;;;;;5078697;27;46883;-71
2022/09/23 07:06:27;;;;;;;;;32.33;21.33;;;;;;;;5091196;27;45541;-71
2022/09/23 07:08:53;;;;;;;;;23.67;18.33;;;;;;;;5092112;27;45530;-72
2022/09/23 07:11:21;;;;;;;;;22.33;22.00;;;;;;;;5083790;27;45861;-72
2022/09/23 07:13:46;;;;;;;;;27.33;22.67;;;;;;;;5089436;27;45852;-73
2022/09/23 07:16:12;;;;;;;;;30.33;26.00;;;;;;;;5087427;27;46288;-73
2022/09/23 07:18:37;;;;;;;;;24.33;21.00;;;;;;;;5057710;27;45361;-74
2022/09/23 07:21:04;;;;;;;;;35.00;22.67;;;;;;;;5079605;27;45884;-73
2022/09/23 07:23:29;;;;;;;;;32.67;23.00;;;;;;;;5094749;27;45446;-71
2022/09/23 07:25:57;;;;;;;;;35.00;27.00;;;;;;;;5085206;27;45507;-72
2022/09/23 07:28:22;;;;;;;;;29.67;21.67;;;;;;;;5077373;27;45790;-73
2022/09/23 07:30:48;;;;;;;;;23.33;21.33;;;;;;;;5090516;27;45730;-72
2022/09/23 07:33:13;;;;;;;;;22.00;20.33;;;;;;;;5094030;27;45638;-72
2022/09/23 07:35:41;;;;;;;;;19.33;17.00;;;;;;;;5084855;27;45697;-73
2022/09/23 07:38:07;;;;;;;;;22.33;20.67;;;;;;;;5086895;27;45377;-73
2022/09/23 07:40:32;;;;;;;;;32.00;27.00;;;;;;;;5098438;27;45716;-72
2022/09/23 07:42:58;;;;;;;;;30.00;19.67;;;;;;;;5090199;27;45661;-72
2022/09/23 07:45:24;;;;;;;;;22.33;21.33;;;;;;;;5093872;27;45873;-72
2022/09/23 07:47:49;;;;;;;;;26.00;21.67;;;;;;;;5090995;27;45451;-72
2022/09/23 07:50:14;;;;;;;;;20.67;20.33;;;;;;;;5093109;27;45379;-71
2022/09/23 07:52:40;;;;;;;;;22.00;20.00;;;;;;;;5090098;27;45518;-72
2022/09/23 07:55:05;;;;;;;;;26.00;25.33;;;;;;;;5091931;27;45677;-71
2022/09/23 07:57:31;;;;;;;;;26.67;23.67;;;;;;;;5092771;27;45468;-72
2022/09/23 07:59:56;;;;;;;;;23.33;22.33;;;;;;;;5089338;27;46085;-72
2022/09/23 08:02:21;;;;;;;;;57.25;45.25;;;;;;;;5086523;27;45506;-72
2022/09/23 08:04:47;;;;;;;;;27.33;23.00;;;;;;;;5074152;27;46895;-70
2022/09/23 08:07:13;;;;;;;;;42.33;32.00;;;;;;;;5072221;28;45693;-72
2022/09/23 08:09:40;;;;;;;;;37.33;27.67;;;;;;;;5063216;28;45681;-70
2022/09/23 08:12:09;;;;;;;;;42.33;31.33;;;;;;;;5064704;27;45931;-71
2022/09/23 08:14:34;;;;;;;;;26.33;20.67;;;;;;;;5065862;27;45618;-71
2022/09/23 08:17:00;;;;;;;;;31.67;26.33;;;;;;;;5052540;28;45755;-70
2022/09/23 08:19:25;;;;;;;;;23.00;21.33;;;;;;;;5054160;28;45603;-72
2022/09/23 08:21:51;;;;;;;;;25.00;19.33;;;;;;;;5054519;27;45397;-71
2022/09/23 08:24:17;;;;;;;;;27.00;22.33;;;;;;;;5053724;28;45448;-71
2022/09/23 08:26:43;;;;;;;;;26.67;24.33;;;;;;;;5055207;28;45879;-72
2022/09/23 08:29:10;;;;;;;;;29.00;20.00;;;;;;;;5059730;28;45702;-72
2022/09/23 08:31:36;;;;;;;;;25.67;23.33;;;;;;;;5042352;28;45775;-71
2022/09/23 08:34:01;;;;;;;;;27.67;24.33;;;;;;;;5066839;27;46219;-71
2022/09/23 08:36:26;;;;;;;;;20.33;17.33;;;;;;;;5079054;27;45780;-73
2022/09/23 08:38:52;;;;;;;;;18.33;17.33;;;;;;;;5079972;27;45887;-71
2022/09/23 08:41:20;;;;;;;;;22.67;20.67;;;;;;;;5074701;27;45385;-72
2022/09/23 08:43:48;;;;;;;;;28.33;20.00;;;;;;;;5071933;28;46063;-72
2022/09/23 08:46:17;;;;;;;;;34.33;28.00;;;;;;;;5066134;27;45746;-70
2022/09/23 08:48:45;;;;;;;;;22.67;22.33;;;;;;;;5076656;27;45576;-72
2022/09/23 08:51:14;;;;;;;;;23.67;21.33;;;;;;;;5055518;27;45782;-72
2022/09/23 08:53:41;;;;;;;;;26.33;21.67;;;;;;;;5080890;27;46370;-71
2022/09/23 08:56:12;;;;;;;;;20.33;17.67;;;;;;;;5066363;28;45381;-72
2022/09/23 08:58:46;;;;;;;;;19.67;16.33;;;;;;;;5076471;27;45792;-72
2022/09/23 09:01:15;;;;;;;;;24.33;21.33;;;;;;;;5083167;27;45905;-71
2022/09/23 09:03:52;;;;;;;;;21.33;16.00;;;;;;;;5102609;27;45432;-73
2022/09/23 09:06:29;;;;;;;;;19.67;14.33;;;;;;;;5078455;27;45322;-73
2022/09/23 09:08:57;;;;;;;;;20.00;17.67;;;;;;;;5089852;27;45862;-72
2022/09/23 09:11:30;;;;;;;;;19.00;16.67;;;;;;;;5087334;27;45405;-72
2022/09/23 09:14:11;;;;;;;;;23.00;19.67;;;;;;;;5072295;27;46152;-71
2022/09/23 09:16:55;;;;;;;;;18.67;17.00;;;;;;;;5096166;27;45509;-70
2022/09/23 09:19:31;;;;;;;;;23.00;18.00;;;;;;;;5093000;27;45772;-71
2022/09/23 09:21:56;;;;;;;;;22.67;15.67;;;;;;;;5098833;27;45603;-72
2022/09/23 09:24:44;;;;;;;;;18.00;15.67;;;;;;;;5088192;27;45596;-72
2022/09/23 09:27:10;;;;;;;;;14.00;14.00;;;;;;;;5102576;27;45382;-70
2022/09/23 09:29:38;;;;;;;;;16.33;14.33;;;;;;;;5097681;27;45966;-72
2022/09/23 09:32:26;;;;;;;;;20.00;16.33;;;;;;;;5102886;27;45752;-73
2022/09/23 09:34:57;;;;;;;;;22.67;19.33;;;;;;;;5081634;27;48135;-71
2022/09/23 09:37:26;;;;;;;;;19.33;15.67;;;;;;;;5099100;27;45305;-72
2022/09/23 09:39:51;;;;;;;;;23.00;16.33;;;;;;;;5094606;27;45887;-73
2022/09/23 09:42:23;;;;;;;;;17.33;15.67;;;;;;;;5098464;27;45869;-72
2022/09/23 09:44:58;;;;;;;;;20.67;18.67;;;;;;;;5089578;27;45476;-73
2022/09/23 09:47:50;;;;;;;;;17.33;16.00;;;;;;;;5081415;27;45484;-71
2022/09/23 09:50:20;;;;;;;;;22.67;16.00;;;;;;;;5049344;27;45372;-72
2022/09/23 09:52:50;;;;;;;;;18.33;16.67;;;;;;;;5086454;27;45492;-73
2022/09/23 09:55:24;;;;;;;;;14.33;14.00;;;;;;;;5073314;27;48156;-74
2022/09/23 09:57:52;;;;;;;;;20.00;16.00;;;;;;;;5090830;27;45719;-74
2022/09/23 10:00:21;;;;;;;;;15.00;14.33;;;;;;;;5080348;27;45975;-72
2022/09/23 10:02:54;;;;;;;;;16.67;12.00;;;;;;;;5082505;27;45851;-73
2022/09/23 10:05:27;;;;;;;;;17.67;16.67;;;;;;;;5086894;27;46595;-72
2022/09/23 10:07:53;;;;;;;;;13.33;12.67;;;;;;;;5096929;27;45482;-72
2022/09/23 10:10:25;;;;;;;;;15.33;13.00;;;;;;;;5065560;28;45765;-73
2022/09/23 10:12:51;;;;;;;;;11.00;10.33;;;;;;;;5096915;27;45582;-72
2022/09/23 10:15:29;;;;;;;;;10.33;9.67;;;;;;;;5079046;27;46421;-73
2022/09/23 10:17:55;;;;;;;;;14.33;13.67;;;;;;;;5084969;27;45807;-74
2022/09/23 10:20:20;;;;;;;;;12.00;10.67;;;;;;;;5094789;27;45826;-73
2022/09/23 10:22:46;;;;;;;;;14.67;10.00;;;;;;;;5093158;27;46031;-73
2022/09/23 10:25:18;;;;;;;;;11.67;9.00;;;;;;;;5091794;27;46908;-74
2022/09/23 10:27:44;;;;;;;;;9.33;9.00;;;;;;;;5088862;27;45900;-72
2022/09/23 10:30:20;;;;;;;;;23.67;22.33;;;;;;;;5103439;27;45795;-73
2022/09/23 10:32:46;;;;;;;;;16.33;13.33;;;;;;;;5095967;27;45801;-72
2022/09/23 10:35:14;;;;;;;;;220.33;164.33;;;;;;;;5089811;27;45868;-72
2022/09/23 10:37:39;;;;;;;;;57.50;47.25;;;;;;;;5084996;27;45862;-72
2022/09/23 10:48:32;;;;;;;;;134.25;99.00;;;;;;;;5077856;27;45677;-72
2022/09/23 10:50:59;;;;;;;;;77.67;55.67;;;;;;;;5088124;27;45821;-71
2022/09/23 10:53:36;;;;;;;;;108.00;89.75;;;;;;;;5087350;27;45710;-72
2022/09/23 10:56:14;;;;;;;;;24.00;16.00;;;;;;;;5086771;27;46420;-72
2022/09/23 10:58:58;;;;;;;;;14.00;12.33;;;;;;;;5075588;27;46036;-71
2022/09/23 11:01:23;;;;;;;;;14.00;11.67;;;;;;;;5096791;27;45648;-73
2022/09/23 11:03:51;;;;;;;;;25.67;23.00;;;;;;;;5086367;27;45963;-72
2022/09/23 11:06:36;;;;;;;;;22.67;15.33;;;;;;;;5088468;27;45916;-71
2022/09/23 11:09:08;;;;;;;;;17.00;12.67;;;;;;;;5092233;27;45989;-70
2022/09/23 11:11:33;;;;;;;;;10.33;8.67;;;;;;;;5073220;27;45789;-73
2022/09/23 11:14:12;;;;;;;;;10.67;10.67;;;;;;;;5086917;27;45955;-71
2022/09/23 11:16:46;;;;;;;;;18.00;16.67;;;;;;;;5078396;27;46188;-73
2022/09/23 11:19:39;;;;;;;;;16.33;13.33;;;;;;;;5071219;27;45615;-74
2022/09/23 11:22:23;;;;;;;;;16.33;15.33;;;;;;;;5076810;27;45366;-72
2022/09/23 11:25:12;;;;;;;;;8.00;8.00;;;;;;;;5094195;27;45812;-75
2022/09/23 11:27:41;;;;;;;;;10.33;9.67;;;;;;;;5088119;27;45656;-72
2022/09/23 11:30:08;;;;;;;;;11.00;11.00;;;;;;;;5074828;27;45368;-71
2022/09/23 11:32:52;;;;;;;;;6.00;6.00;;;;;;;;5073728;27;45832;-72
2022/09/23 11:35:28;;;;;;;;;8.00;8.00;;;;;;;;5074852;27;45681;-71
2022/09/23 11:38:01;;;;;;;;;8.00;8.00;;;;;;;;5085753;27;46642;-74
2022/09/23 11:40:30;;;;;;;;;7.67;6.67;;;;;;;;5089004;27;45436;-76
2022/09/23 11:42:58;;;;;;;;;6.00;6.00;;;;;;;;5078513;27;45487;-76
2022/09/23 11:45:28;;;;;;;;;6.67;6.67;;;;;;;;5076567;27;45821;-78
2022/09/23 11:47:57;;;;;;;;;5.33;5.33;;;;;;;;5083700;27;45750;-77
2022/09/23 11:50:28;;;;;;;;;5.33;5.33;;;;;;;;5082514;27;45381;-78
2022/09/23 11:53:01;;;;;;;;;9.67;8.67;;;;;;;;5082900;27;45397;-75
2022/09/23 11:55:30;;;;;;;;;14.00;13.33;;;;;;;;5077229;27;45734;-76
2022/09/23 11:58:10;;;;;;;;;6.00;6.00;;;;;;;;5098508;27;46061;-76
2022/09/23 12:00:37;;;;;;;;;11.67;10.33;;;;;;;;5090214;27;45473;-75
2022/09/23 12:03:06;;;;;;;;;7.00;6.00;;;;;;;;5086183;27;45610;-74
2022/09/23 12:05:38;;;;;;;;;8.00;8.00;;;;;;;;5098441;27;45794;-75
2022/09/23 12:08:03;;;;;;;;;11.67;9.67;;;;;;;;5094262;27;45471;-76
2022/09/23 12:10:47;;;;;;;;;8.33;7.00;;;;;;;;5083969;27;45475;-75
2022/09/23 12:13:18;;;;;;;;;5.33;5.33;;;;;;;;5073778;27;45452;-75
2022/09/23 12:15:49;;;;;;;;;5.00;5.00;;;;;;;;5091909;27;46029;-76
2022/09/23 12:18:18;;;;;;;;;2.00;2.00;;;;;;;;5084658;27;46531;-74
2022/09/23 12:20:49;;;;;;;;;6.67;4.00;;;;;;;;5108207;27;45871;-74
2022/09/23 12:23:24;;;;;;;;;5.00;5.00;;;;;;;;5113297;27;45440;-75
2022/09/23 12:26:05;;;;;;;;;5.33;5.00;;;;;;;;5093392;27;45490;-75
2022/09/23 12:28:34;;;;;;;;;11.67;9.00;;;;;;;;5094307;27;45757;-73
2022/09/23 12:31:00;;;;;;;;;11.67;11.67;;;;;;;;5080218;27;45415;-75
2022/09/23 12:33:27;;;;;;;;;4.67;3.67;;;;;;;;5077175;27;45414;-75
2022/09/23 12:35:53;;;;;;;;;5.67;5.67;;;;;;;;5076184;27;45913;-74
2022/09/23 12:38:25;;;;;;;;;6.00;5.00;;;;;;;;5097163;27;46331;-76
2022/09/23 12:40:51;;;;;;;;;5.00;5.00;;;;;;;;5102711;27;45403;-76
2022/09/23 12:43:17;;;;;;;;;4.33;4.33;;;;;;;;5104804;27;45565;-75
2022/09/23 12:45:42;;;;;;;;;6.67;4.00;;;;;;;;5091602;27;45395;-74
2022/09/23 12:48:17;;;;;;;;;7.00;6.00;;;;;;;;5097451;27;45445;-75
2022/09/23 12:50:49;;;;;;;;;6.33;5.00;;;;;;;;5092483;27;45814;-72
2022/09/23 12:53:33;;;;;;;;;5.00;5.00;;;;;;;;5074251;27;45712;-72
2022/09/23 12:56:13;;;;;;;;;7.00;5.67;;;;;;;;5101015;27;46466;-73
2022/09/23 12:58:39;;;;;;;;;4.00;4.00;;;;;;;;5074308;27;45999;-70
2022/09/23 13:01:18;;;;;;;;;8.67;6.67;;;;;;;;5091596;27;45822;-72
2022/09/23 13:06:51;;;;;;;;;4.67;4.67;;;;;;;;5096943;27;45687;-73
2022/09/23 13:09:28;;;;;;;;;5.67;4.00;;;;;;;;5091859;27;45950;-72
2022/09/23 13:11:58;;;;;;;;;7.00;5.00;;;;;;;;5083999;27;45661;-72
2022/09/23 13:14:24;;;;;;;;;4.67;4.67;;;;;;;;5086286;27;45358;-71
2022/09/23 13:16:50;;;;;;;;;5.33;5.33;;;;;;;;5085040;27;45669;-71
2022/09/23 13:19:24;;;;;;;;;6.00;6.00;;;;;;;;5080741;27;46608;-72
2022/09/23 13:21:50;;;;;;;;;7.33;7.00;;;;;;;;5069511;27;45700;-71
2022/09/23 13:24:15;;;;;;;;;9.67;8.00;;;;;;;;5085841;27;45383;-72
2022/09/23 13:26:48;;;;;;;;;7.00;7.00;;;;;;;;5090881;27;45873;-72
2022/09/23 13:29:37;;;;;;;;;8.00;6.33;;;;;;;;5083405;27;45499;-71
2022/09/23 13:32:04;;;;;;;;;7.33;7.33;;;;;;;;5052048;27;45973;-73
2022/09/23 13:34:33;;;;;;;;;10.67;10.33;;;;;;;;5078288;27;45918;-73
2022/09/23 13:37:12;;;;;;;;;7.67;6.33;;;;;;;;5064158;27;46038;-72
2022/09/23 13:39:37;;;;;;;;;11.33;8.33;;;;;;;;5077958;27;46808;-75
2022/09/23 13:42:03;;;;;;;;;15.33;11.00;;;;;;;;5079872;27;45570;-73
2022/09/23 13:44:29;;;;;;;;;11.33;10.33;;;;;;;;5080776;27;45716;-72
2022/09/23 13:46:57;;;;;;;;;9.33;5.33;;;;;;;;5077915;27;45770;-74
2022/09/23 13:49:23;;;;;;;;;5.67;5.00;;;;;;;;5083251;27;46271;-76
2022/09/23 13:51:50;;;;;;;;;7.00;7.00;;;;;;;;5075718;27;45638;-74
2022/09/23 13:54:27;;;;;;;;;6.67;6.67;;;;;;;;5081478;27;45432;-73
2022/09/23 13:56:53;;;;;;;;;6.67;5.00;;;;;;;;5084585;27;45764;-75
2022/09/23 13:59:26;;;;;;;;;7.00;7.00;;;;;;;;5080183;27;46543;-75
2022/09/23 14:02:02;;;;;;;;;8.33;7.00;;;;;;;;5089402;27;45858;-76
2022/09/23 14:04:27;;;;;;;;;8.33;7.33;;;;;;;;5090542;27;45789;-76
2022/09/23 14:06:53;;;;;;;;;8.00;8.00;;;;;;;;5089768;27;45798;-69
2022/09/23 14:09:21;;;;;;;;;9.33;6.33;;;;;;;;5091460;27;45809;-71
2022/09/23 14:11:48;;;;;;;;;7.67;7.00;;;;;;;;5079276;27;45700;-69
2022/09/23 14:14:14;;;;;;;;;6.00;6.00;;;;;;;;5081627;27;45850;-71
2022/09/23 14:16:40;;;;;;;;;5.33;4.67;;;;;;;;5090730;27;45633;-71
2022/09/23 14:19:10;;;;;;;;;9.33;6.33;;;;;;;;5087988;27;45800;-74
2022/09/23 14:21:38;;;;;;;;;7.00;5.00;;;;;;;;5086609;27;45864;-74
2022/09/23 14:24:10;;;;;;;;;5.67;4.67;;;;;;;;5086181;27;45578;-69
2022/09/23 14:26:35;;;;;;;;;6.33;6.33;;;;;;;;5081879;27;46007;-73
2022/09/23 14:29:01;;;;;;;;;7.67;7.67;;;;;;;;5082503;27;45653;-72
2022/09/23 14:31:26;;;;;;;;;6.33;6.00;;;;;;;;5083406;27;45748;-71
2022/09/23 14:33:51;;;;;;;;;6.33;6.33;;;;;;;;5092475;27;45680;-76
2022/09/23 14:39:02;;;;;;;;;13.67;11.00;;;;;;;;5085488;27;45906;-72
2022/09/23 14:41:32;;;;;;;;;12.00;11.33;;;;;;;;5089403;27;45661;-74
2022/09/23 14:43:58;;;;;;;;;11.67;9.00;;;;;;;;5084799;27;45944;-73
2022/09/23 14:46:28;;;;;;;;;11.33;9.00;;;;;;;;5095332;27;45799;-69